sensor_id;sensor_type;location;lat;lon;timestamp;P1;durP1;ratioP1;P2;durP2;ratioP2
74656;SDS011;63185;45.642;13.764;2023-04-25T00:01:24;4.70;;;0.60;;
74656;SDS011;63185;45.642;13.764;2023-04-25T00:03:50;1.65;;;0.70;;
74656;SDS011;63185;45.642;13.764;2023-04-25T00:06:16;1.25;;;0.70;;
74656;SDS011;63185;45.642;13.764;2023-04-25T00:08:42;1.65;;;0.80;;
74656;SDS011;63185;45.642;13.764;2023-04-25T00:11:08;1.58;;;1.00;;
74656;SDS011;63185;45.642;13.764;2023-04-25T00:13:34;2.38;;;1.10;;
74656;SDS011;63185;45.642;13.764;2023-04-25T00:16:00;0.90;;;0.60;;
74656;SDS011;63185;45.642;13.764;2023-04-25T00:18:27;2.00;;;0.85;;
74656;SDS011;63185;45.642;13.764;2023-04-25T00:20:54;1.45;;;0.73;;
74656;SDS011;63185;45.642;13.764;2023-04-25T00:23:20;1.83;;;0.95;;
74656;SDS011;63185;45.642;13.764;2023-04-25T00:25:49;1.33;;;0.80;;
74656;SDS011;63185;45.642;13.764;2023-04-25T00:28:15;3.78;;;0.98;;
74656;SDS011;63185;45.642;13.764;2023-04-25T00:30:41;1.67;;;0.80;;
74656;SDS011;63185;45.642;13.764;2023-04-25T00:33:07;3.42;;;0.88;;
74656;SDS011;63185;45.642;13.764;2023-04-25T00:35:34;2.22;;;0.77;;
74656;SDS011;63185;45.642;13.764;2023-04-25T00:38:00;1.50;;;0.73;;
74656;SDS011;63185;45.642;13.764;2023-04-25T00:40:26;1.65;;;0.85;;
74656;SDS011;63185;45.642;13.764;2023-04-25T00:42:52;1.75;;;0.70;;
74656;SDS011;63185;45.642;13.764;2023-04-25T00:45:18;4.25;;;0.70;;
74656;SDS011;63185;45.642;13.764;2023-04-25T00:47:44;1.95;;;0.70;;
74656;SDS011;63185;45.642;13.764;2023-04-25T00:50:11;2.50;;;0.80;;
74656;SDS011;63185;45.642;13.764;2023-04-25T00:52:41;0.95;;;0.47;;
74656;SDS011;63185;45.642;13.764;2023-04-25T00:55:10;1.98;;;0.77;;
74656;SDS011;63185;45.642;13.764;2023-04-25T00:57:37;0.98;;;0.57;;
74656;SDS011;63185;45.642;13.764;2023-04-25T01:00:06;2.45;;;0.70;;
74656;SDS011;63185;45.642;13.764;2023-04-25T01:02:34;1.98;;;0.70;;
74656;SDS011;63185;45.642;13.764;2023-04-25T01:05:00;1.55;;;0.80;;
74656;SDS011;63185;45.642;13.764;2023-04-25T01:07:27;3.10;;;0.70;;
74656;SDS011;63185;45.642;13.764;2023-04-25T01:09:53;2.33;;;0.70;;
74656;SDS011;63185;45.642;13.764;2023-04-25T01:12:19;1.27;;;0.60;;
74656;SDS011;63185;45.642;13.764;2023-04-25T01:14:44;3.60;;;0.75;;
74656;SDS011;63185;45.642;13.764;2023-04-25T01:17:11;1.30;;;0.70;;
74656;SDS011;63185;45.642;13.764;2023-04-25T01:19:37;2.25;;;0.57;;
74656;SDS011;63185;45.642;13.764;2023-04-25T01:22:04;1.40;;;0.50;;
74656;SDS011;63185;45.642;13.764;2023-04-25T01:24:33;3.10;;;0.60;;
74656;SDS011;63185;45.642;13.764;2023-04-25T01:27:00;1.83;;;0.68;;
74656;SDS011;63185;45.642;13.764;2023-04-25T01:29:27;1.25;;;0.30;;
74656;SDS011;63185;45.642;13.764;2023-04-25T01:31:53;0.45;;;0.30;;
74656;SDS011;63185;45.642;13.764;2023-04-25T01:34:20;1.63;;;0.60;;
74656;SDS011;63185;45.642;13.764;2023-04-25T01:36:49;1.92;;;0.70;;
74656;SDS011;63185;45.642;13.764;2023-04-25T01:39:16;0.98;;;0.40;;
74656;SDS011;63185;45.642;13.764;2023-04-25T01:41:42;0.77;;;0.43;;
74656;SDS011;63185;45.642;13.764;2023-04-25T01:44:08;0.82;;;0.40;;
74656;SDS011;63185;45.642;13.764;2023-04-25T01:46:34;1.60;;;0.50;;
74656;SDS011;63185;45.642;13.764;2023-04-25T01:49:00;1.67;;;0.47;;
74656;SDS011;63185;45.642;13.764;2023-04-25T01:51:26;1.65;;;0.60;;
74656;SDS011;63185;45.642;13.764;2023-04-25T01:53:52;0.98;;;0.50;;
74656;SDS011;63185;45.642;13.764;2023-04-25T01:56:18;0.95;;;0.60;;
74656;SDS011;63185;45.642;13.764;2023-04-25T01:58:45;1.05;;;0.60;;
74656;SDS011;63185;45.642;13.764;2023-04-25T02:01:11;2.47;;;0.65;;
74656;SDS011;63185;45.642;13.764;2023-04-25T02:03:36;1.17;;;0.47;;
74656;SDS011;63185;45.642;13.764;2023-04-25T02:06:02;1.40;;;0.68;;
74656;SDS011;63185;45.642;13.764;2023-04-25T02:08:28;1.35;;;0.60;;
74656;SDS011;63185;45.642;13.764;2023-04-25T02:10:55;1.92;;;0.60;;
74656;SDS011;63185;45.642;13.764;2023-04-25T02:13:20;0.80;;;0.50;;
74656;SDS011;63185;45.642;13.764;2023-04-25T02:15:46;2.00;;;0.70;;
74656;SDS011;63185;45.642;13.764;2023-04-25T02:18:12;2.35;;;1.05;;
74656;SDS011;63185;45.642;13.764;2023-04-25T02:20:38;0.90;;;0.50;;
74656;SDS011;63185;45.642;13.764;2023-04-25T02:23:03;3.47;;;0.63;;
74656;SDS011;63185;45.642;13.764;2023-04-25T02:25:29;1.85;;;0.60;;
74656;SDS011;63185;45.642;13.764;2023-04-25T02:27:55;0.80;;;0.40;;
74656;SDS011;63185;45.642;13.764;2023-04-25T02:30:20;1.27;;;0.50;;
74656;SDS011;63185;45.642;13.764;2023-04-25T02:32:46;1.23;;;0.60;;
74656;SDS011;63185;45.642;13.764;2023-04-25T02:35:12;1.33;;;0.50;;
74656;SDS011;63185;45.642;13.764;2023-04-25T02:37:38;1.17;;;0.50;;
74656;SDS011;63185;45.642;13.764;2023-04-25T02:40:04;1.48;;;0.60;;
74656;SDS011;63185;45.642;13.764;2023-04-25T02:42:31;2.35;;;0.60;;
74656;SDS011;63185;45.642;13.764;2023-04-25T02:44:57;0.73;;;0.40;;
74656;SDS011;63185;45.642;13.764;2023-04-25T02:47:23;2.38;;;0.40;;
74656;SDS011;63185;45.642;13.764;2023-04-25T02:49:48;1.10;;;0.47;;
74656;SDS011;63185;45.642;13.764;2023-04-25T02:52:15;0.93;;;0.40;;
74656;SDS011;63185;45.642;13.764;2023-04-25T02:54:40;1.25;;;0.43;;
74656;SDS011;63185;45.642;13.764;2023-04-25T02:57:06;2.17;;;0.60;;
74656;SDS011;63185;45.642;13.764;2023-04-25T02:59:32;1.83;;;0.52;;
74656;SDS011;63185;45.642;13.764;2023-04-25T03:01:58;0.85;;;0.40;;
74656;SDS011;63185;45.642;13.764;2023-04-25T03:04:24;1.38;;;0.50;;
74656;SDS011;63185;45.642;13.764;2023-04-25T03:06:50;1.35;;;0.60;;
74656;SDS011;63185;45.642;13.764;2023-04-25T03:09:16;1.70;;;0.40;;
74656;SDS011;63185;45.642;13.764;2023-04-25T03:11:43;1.20;;;0.40;;
74656;SDS011;63185;45.642;13.764;2023-04-25T03:14:09;1.95;;;0.43;;
74656;SDS011;63185;45.642;13.764;2023-04-25T03:16:35;2.53;;;0.60;;
74656;SDS011;63185;45.642;13.764;2023-04-25T03:19:01;2.33;;;0.47;;
74656;SDS011;63185;45.642;13.764;2023-04-25T03:21:28;0.65;;;0.43;;
74656;SDS011;63185;45.642;13.764;2023-04-25T03:23:54;2.95;;;0.50;;
74656;SDS011;63185;45.642;13.764;2023-04-25T03:26:19;1.80;;;0.35;;
74656;SDS011;63185;45.642;13.764;2023-04-25T03:28:45;1.15;;;0.52;;
74656;SDS011;63185;45.642;13.764;2023-04-25T03:31:11;0.98;;;0.38;;
74656;SDS011;63185;45.642;13.764;2023-04-25T03:33:36;0.60;;;0.47;;
74656;SDS011;63185;45.642;13.764;2023-04-25T03:36:02;2.55;;;0.60;;
74656;SDS011;63185;45.642;13.764;2023-04-25T03:38:28;1.63;;;0.60;;
74656;SDS011;63185;45.642;13.764;2023-04-25T03:40:54;1.27;;;0.60;;
74656;SDS011;63185;45.642;13.764;2023-04-25T03:43:21;1.02;;;0.43;;
74656;SDS011;63185;45.642;13.764;2023-04-25T03:45:47;0.82;;;0.40;;
74656;SDS011;63185;45.642;13.764;2023-04-25T03:48:12;0.98;;;0.40;;
74656;SDS011;63185;45.642;13.764;2023-04-25T03:50:38;1.83;;;0.60;;
74656;SDS011;63185;45.642;13.764;2023-04-25T03:53:04;1.05;;;0.40;;
74656;SDS011;63185;45.642;13.764;2023-04-25T03:55:29;2.10;;;0.50;;
74656;SDS011;63185;45.642;13.764;2023-04-25T03:57:56;2.30;;;0.60;;
74656;SDS011;63185;45.642;13.764;2023-04-25T04:00:23;1.23;;;0.50;;
74656;SDS011;63185;45.642;13.764;2023-04-25T04:02:49;2.13;;;0.50;;
74656;SDS011;63185;45.642;13.764;2023-04-25T04:05:15;1.48;;;0.50;;
74656;SDS011;63185;45.642;13.764;2023-04-25T04:07:41;1.30;;;0.45;;
74656;SDS011;63185;45.642;13.764;2023-04-25T04:10:08;0.70;;;0.40;;
74656;SDS011;63185;45.642;13.764;2023-04-25T04:12:37;1.85;;;0.50;;
74656;SDS011;63185;45.642;13.764;2023-04-25T04:15:06;0.47;;;0.40;;
74656;SDS011;63185;45.642;13.764;2023-04-25T04:17:32;0.85;;;0.40;;
74656;SDS011;63185;45.642;13.764;2023-04-25T04:19:58;2.00;;;0.50;;
74656;SDS011;63185;45.642;13.764;2023-04-25T04:22:24;3.67;;;0.60;;
74656;SDS011;63185;45.642;13.764;2023-04-25T04:24:50;1.27;;;0.40;;
74656;SDS011;63185;45.642;13.764;2023-04-25T04:27:19;1.08;;;0.50;;
74656;SDS011;63185;45.642;13.764;2023-04-25T04:29:46;1.50;;;0.47;;
74656;SDS011;63185;45.642;13.764;2023-04-25T04:32:12;0.95;;;0.40;;
74656;SDS011;63185;45.642;13.764;2023-04-25T04:34:38;0.70;;;0.40;;
74656;SDS011;63185;45.642;13.764;2023-04-25T04:37:04;1.23;;;0.40;;
74656;SDS011;63185;45.642;13.764;2023-04-25T04:39:31;1.17;;;0.50;;
74656;SDS011;63185;45.642;13.764;2023-04-25T04:41:58;2.00;;;0.73;;
74656;SDS011;63185;45.642;13.764;2023-04-25T04:44:24;1.80;;;1.00;;
74656;SDS011;63185;45.642;13.764;2023-04-25T04:46:50;2.58;;;1.40;;
74656;SDS011;63185;45.642;13.764;2023-04-25T04:49:16;5.35;;;1.10;;
74656;SDS011;63185;45.642;13.764;2023-04-25T04:51:42;3.60;;;1.50;;
74656;SDS011;63185;45.642;13.764;2023-04-25T04:54:11;2.47;;;1.20;;
74656;SDS011;63185;45.642;13.764;2023-04-25T04:56:36;2.30;;;1.50;;
74656;SDS011;63185;45.642;13.764;2023-04-25T04:59:02;2.47;;;1.60;;
74656;SDS011;63185;45.642;13.764;2023-04-25T05:01:28;2.03;;;1.42;;
74656;SDS011;63185;45.642;13.764;2023-04-25T05:03:55;2.65;;;1.73;;
74656;SDS011;63185;45.642;13.764;2023-04-25T05:06:25;1.45;;;0.90;;
74656;SDS011;63185;45.642;13.764;2023-04-25T05:08:54;3.78;;;1.10;;
74656;SDS011;63185;45.642;13.764;2023-04-25T05:11:21;1.80;;;1.00;;
74656;SDS011;63185;45.642;13.764;2023-04-25T05:13:48;1.45;;;0.80;;
74656;SDS011;63185;45.642;13.764;2023-04-25T05:16:14;2.38;;;0.70;;
74656;SDS011;63185;45.642;13.764;2023-04-25T05:18:40;1.15;;;0.60;;
74656;SDS011;63185;45.642;13.764;2023-04-25T05:21:07;3.40;;;0.60;;
74656;SDS011;63185;45.642;13.764;2023-04-25T05:23:33;1.67;;;0.60;;
74656;SDS011;63185;45.642;13.764;2023-04-25T05:25:59;0.82;;;0.50;;
74656;SDS011;63185;45.642;13.764;2023-04-25T05:28:25;1.92;;;0.57;;
74656;SDS011;63185;45.642;13.764;2023-04-25T05:30:50;2.40;;;0.70;;
74656;SDS011;63185;45.642;13.764;2023-04-25T05:33:16;2.00;;;0.80;;
74656;SDS011;63185;45.642;13.764;2023-04-25T05:35:42;2.83;;;0.70;;
74656;SDS011;63185;45.642;13.764;2023-04-25T05:38:08;1.00;;;0.47;;
74656;SDS011;63185;45.642;13.764;2023-04-25T05:40:34;2.05;;;0.55;;
74656;SDS011;63185;45.642;13.764;2023-04-25T05:42:59;1.65;;;0.70;;
74656;SDS011;63185;45.642;13.764;2023-04-25T05:45:25;1.30;;;0.60;;
74656;SDS011;63185;45.642;13.764;2023-04-25T05:47:51;1.23;;;0.47;;
74656;SDS011;63185;45.642;13.764;2023-04-25T05:50:17;0.70;;;0.40;;
74656;SDS011;63185;45.642;13.764;2023-04-25T05:52:43;1.80;;;1.13;;
74656;SDS011;63185;45.642;13.764;2023-04-25T05:55:08;1.55;;;0.50;;
74656;SDS011;63185;45.642;13.764;2023-04-25T05:57:34;1.55;;;0.70;;
74656;SDS011;63185;45.642;13.764;2023-04-25T06:00:00;1.58;;;0.70;;
74656;SDS011;63185;45.642;13.764;2023-04-25T06:02:26;1.13;;;0.43;;
74656;SDS011;63185;45.642;13.764;2023-04-25T06:04:52;3.83;;;0.52;;
74656;SDS011;63185;45.642;13.764;2023-04-25T06:07:18;1.95;;;0.40;;
74656;SDS011;63185;45.642;13.764;2023-04-25T06:09:45;0.80;;;0.40;;
74656;SDS011;63185;45.642;13.764;2023-04-25T06:12:10;1.35;;;0.60;;
74656;SDS011;63185;45.642;13.764;2023-04-25T06:14:36;1.92;;;0.70;;
74656;SDS011;63185;45.642;13.764;2023-04-25T06:17:02;1.20;;;0.57;;
74656;SDS011;63185;45.642;13.764;2023-04-25T06:19:34;2.17;;;0.70;;
74656;SDS011;63185;45.642;13.764;2023-04-25T06:22:01;3.33;;;0.60;;
74656;SDS011;63185;45.642;13.764;2023-04-25T06:24:27;0.47;;;0.38;;
74656;SDS011;63185;45.642;13.764;2023-04-25T06:26:53;0.60;;;0.40;;
74656;SDS011;63185;45.642;13.764;2023-04-25T06:29:19;1.83;;;0.32;;
74656;SDS011;63185;45.642;13.764;2023-04-25T06:31:45;1.75;;;0.50;;
74656;SDS011;63185;45.642;13.764;2023-04-25T06:34:10;1.65;;;0.50;;
74656;SDS011;63185;45.642;13.764;2023-04-25T06:36:36;1.67;;;0.60;;
74656;SDS011;63185;45.642;13.764;2023-04-25T06:39:02;0.90;;;0.40;;
74656;SDS011;63185;45.642;13.764;2023-04-25T06:41:28;2.83;;;0.60;;
74656;SDS011;63185;45.642;13.764;2023-04-25T06:43:54;0.98;;;0.32;;
74656;SDS011;63185;45.642;13.764;2023-04-25T06:46:19;2.05;;;0.40;;
74656;SDS011;63185;45.642;13.764;2023-04-25T06:48:45;2.38;;;0.50;;
74656;SDS011;63185;45.642;13.764;2023-04-25T06:51:11;2.05;;;0.98;;
74656;SDS011;63185;45.642;13.764;2023-04-25T06:53:38;2.88;;;1.15;;
74656;SDS011;63185;45.642;13.764;2023-04-25T06:56:04;2.38;;;1.10;;
74656;SDS011;63185;45.642;13.764;2023-04-25T06:58:30;3.30;;;1.02;;
74656;SDS011;63185;45.642;13.764;2023-04-25T07:00:56;1.48;;;0.70;;
74656;SDS011;63185;45.642;13.764;2023-04-25T07:03:22;3.80;;;1.08;;
74656;SDS011;63185;45.642;13.764;2023-04-25T07:05:48;2.90;;;1.05;;
74656;SDS011;63185;45.642;13.764;2023-04-25T07:08:15;4.28;;;1.25;;
74656;SDS011;63185;45.642;13.764;2023-04-25T07:10:40;3.50;;;1.38;;
74656;SDS011;63185;45.642;13.764;2023-04-25T07:13:06;2.85;;;0.90;;
74656;SDS011;63185;45.642;13.764;2023-04-25T07:15:32;2.60;;;0.88;;
74656;SDS011;63185;45.642;13.764;2023-04-25T07:17:58;8.48;;;0.98;;
74656;SDS011;63185;45.642;13.764;2023-04-25T07:20:24;3.20;;;0.88;;
74656;SDS011;63185;45.642;13.764;2023-04-25T07:22:50;3.35;;;0.73;;
74656;SDS011;63185;45.642;13.764;2023-04-25T07:25:16;2.10;;;0.63;;
74656;SDS011;63185;45.642;13.764;2023-04-25T07:27:42;2.03;;;0.70;;
74656;SDS011;63185;45.642;13.764;2023-04-25T07:30:08;1.67;;;0.60;;
74656;SDS011;63185;45.642;13.764;2023-04-25T07:32:34;2.20;;;0.60;;
74656;SDS011;63185;45.642;13.764;2023-04-25T07:35:00;3.03;;;0.70;;
74656;SDS011;63185;45.642;13.764;2023-04-25T07:37:26;2.53;;;0.80;;
74656;SDS011;63185;45.642;13.764;2023-04-25T07:39:52;0.75;;;0.40;;
74656;SDS011;63185;45.642;13.764;2023-04-25T07:42:18;3.53;;;0.70;;
74656;SDS011;63185;45.642;13.764;2023-04-25T07:44:44;1.85;;;0.60;;
74656;SDS011;63185;45.642;13.764;2023-04-25T07:47:09;3.45;;;0.93;;
74656;SDS011;63185;45.642;13.764;2023-04-25T07:49:36;5.00;;;0.70;;
74656;SDS011;63185;45.642;13.764;2023-04-25T07:52:02;6.05;;;1.20;;
74656;SDS011;63185;45.642;13.764;2023-04-25T07:54:30;9.67;;;1.30;;
74656;SDS011;63185;45.642;13.764;2023-04-25T07:56:57;12.52;;;1.90;;
74656;SDS011;63185;45.642;13.764;2023-04-25T07:59:23;6.30;;;1.40;;
74656;SDS011;63185;45.642;13.764;2023-04-25T08:01:49;11.45;;;1.58;;
74656;SDS011;63185;45.642;13.764;2023-04-25T08:04:15;9.23;;;1.58;;
74656;SDS011;63185;45.642;13.764;2023-04-25T08:06:41;10.40;;;1.92;;
74656;SDS011;63185;45.642;13.764;2023-04-25T08:09:07;14.07;;;1.70;;
74656;SDS011;63185;45.642;13.764;2023-04-25T08:11:34;6.22;;;1.38;;
74656;SDS011;63185;45.642;13.764;2023-04-25T08:14:00;8.13;;;1.30;;
74656;SDS011;63185;45.642;13.764;2023-04-25T08:16:26;5.97;;;1.08;;
74656;SDS011;63185;45.642;13.764;2023-04-25T08:18:55;9.55;;;1.13;;
74656;SDS011;63185;45.642;13.764;2023-04-25T08:21:21;7.60;;;1.17;;
74656;SDS011;63185;45.642;13.764;2023-04-25T08:23:47;8.18;;;1.30;;
74656;SDS011;63185;45.642;13.764;2023-04-25T08:26:12;5.18;;;0.85;;
74656;SDS011;63185;45.642;13.764;2023-04-25T08:28:38;3.28;;;0.98;;
74656;SDS011;63185;45.642;13.764;2023-04-25T08:31:04;8.25;;;1.27;;
74656;SDS011;63185;45.642;13.764;2023-04-25T08:33:30;7.30;;;1.00;;
74656;SDS011;63185;45.642;13.764;2023-04-25T08:35:56;4.72;;;1.10;;
74656;SDS011;63185;45.642;13.764;2023-04-25T08:38:22;5.65;;;1.02;;
74656;SDS011;63185;45.642;13.764;2023-04-25T08:40:51;4.20;;;1.13;;
74656;SDS011;63185;45.642;13.764;2023-04-25T08:43:17;2.28;;;0.75;;
74656;SDS011;63185;45.642;13.764;2023-04-25T08:45:44;9.75;;;1.10;;
74656;SDS011;63185;45.642;13.764;2023-04-25T08:48:15;6.22;;;1.13;;
74656;SDS011;63185;45.642;13.764;2023-04-25T08:50:45;5.45;;;1.00;;
74656;SDS011;63185;45.642;13.764;2023-04-25T08:53:20;6.63;;;1.00;;
74656;SDS011;63185;45.642;13.764;2023-04-25T08:55:52;2.92;;;0.80;;
74656;SDS011;63185;45.642;13.764;2023-04-25T08:58:19;3.78;;;0.90;;
74656;SDS011;63185;45.642;13.764;2023-04-25T09:00:46;3.17;;;0.70;;
74656;SDS011;63185;45.642;13.764;2023-04-25T09:03:13;8.65;;;1.30;;
74656;SDS011;63185;45.642;13.764;2023-04-25T09:05:39;7.65;;;0.90;;
74656;SDS011;63185;45.642;13.764;2023-04-25T09:08:05;6.75;;;0.80;;
74656;SDS011;63185;45.642;13.764;2023-04-25T09:10:32;3.70;;;1.40;;
74656;SDS011;63185;45.642;13.764;2023-04-25T09:13:02;5.45;;;1.88;;
74656;SDS011;63185;45.642;13.764;2023-04-25T09:15:28;5.05;;;2.00;;
74656;SDS011;63185;45.642;13.764;2023-04-25T09:18:01;7.90;;;2.38;;
74656;SDS011;63185;45.642;13.764;2023-04-25T09:20:26;4.40;;;2.30;;
74656;SDS011;63185;45.642;13.764;2023-04-25T09:23:03;5.72;;;2.10;;
74656;SDS011;63185;45.642;13.764;2023-04-25T09:25:33;8.32;;;2.40;;
74656;SDS011;63185;45.642;13.764;2023-04-25T09:28:04;11.25;;;1.77;;
74656;SDS011;63185;45.642;13.764;2023-04-25T09:30:32;7.35;;;1.67;;
74656;SDS011;63185;45.642;13.764;2023-04-25T09:33:06;6.68;;;1.30;;
74656;SDS011;63185;45.642;13.764;2023-04-25T09:35:39;7.35;;;1.55;;
74656;SDS011;63185;45.642;13.764;2023-04-25T09:38:12;8.23;;;1.70;;
74656;SDS011;63185;45.642;13.764;2023-04-25T09:40:42;5.07;;;1.63;;
74656;SDS011;63185;45.642;13.764;2023-04-25T09:45:45;8.68;;;2.72;;
74656;SDS011;63185;45.642;13.764;2023-04-25T09:48:21;7.28;;;2.00;;
74656;SDS011;63185;45.642;13.764;2023-04-25T09:53:33;8.00;;;1.52;;
74656;SDS011;63185;45.642;13.764;2023-04-25T09:56:06;3.47;;;1.30;;
74656;SDS011;63185;45.642;13.764;2023-04-25T09:58:34;6.78;;;1.30;;
74656;SDS011;63185;45.642;13.764;2023-04-25T10:01:02;8.30;;;2.20;;
74656;SDS011;63185;45.642;13.764;2023-04-25T10:03:29;7.78;;;1.80;;
74656;SDS011;63185;45.642;13.764;2023-04-25T10:05:58;6.40;;;1.40;;
74656;SDS011;63185;45.642;13.764;2023-04-25T10:08:28;3.47;;;1.00;;
74656;SDS011;63185;45.642;13.764;2023-04-25T10:11:02;4.47;;;0.98;;
74656;SDS011;63185;45.642;13.764;2023-04-25T10:13:29;8.18;;;1.48;;
74656;SDS011;63185;45.642;13.764;2023-04-25T10:16:00;7.05;;;1.08;;
74656;SDS011;63185;45.642;13.764;2023-04-25T10:18:29;14.38;;;1.80;;
74656;SDS011;63185;45.642;13.764;2023-04-25T10:20:57;7.70;;;1.50;;
74656;SDS011;63185;45.642;13.764;2023-04-25T10:23:24;12.53;;;1.80;;
74656;SDS011;63185;45.642;13.764;2023-04-25T10:25:51;10.07;;;1.40;;
74656;SDS011;63185;45.642;13.764;2023-04-25T10:28:18;6.00;;;1.50;;
74656;SDS011;63185;45.642;13.764;2023-04-25T10:30:57;5.85;;;1.40;;
74656;SDS011;63185;45.642;13.764;2023-04-25T10:38:35;3.63;;;0.90;;
74656;SDS011;63185;45.642;13.764;2023-04-25T10:41:06;5.60;;;1.02;;
74656;SDS011;63185;45.642;13.764;2023-04-25T10:43:37;3.60;;;1.38;;
74656;SDS011;63185;45.642;13.764;2023-04-25T10:46:14;2.13;;;0.82;;
74656;SDS011;63185;45.642;13.764;2023-04-25T10:48:45;6.18;;;1.10;;
74656;SDS011;63185;45.642;13.764;2023-04-25T10:51:25;5.50;;;1.15;;
74656;SDS011;63185;45.642;13.764;2023-04-25T10:53:57;2.22;;;0.88;;
74656;SDS011;63185;45.642;13.764;2023-04-25T10:56:31;4.40;;;1.45;;
74656;SDS011;63185;45.642;13.764;2023-04-25T11:01:46;5.05;;;1.42;;
74656;SDS011;63185;45.642;13.764;2023-04-25T11:04:23;4.25;;;1.13;;
74656;SDS011;63185;45.642;13.764;2023-04-25T11:09:48;6.05;;;1.35;;
74656;SDS011;63185;45.642;13.764;2023-04-25T11:12:15;6.72;;;1.45;;
74656;SDS011;63185;45.642;13.764;2023-04-25T11:14:42;7.25;;;1.20;;
74656;SDS011;63185;45.642;13.764;2023-04-25T11:17:08;4.28;;;1.05;;
74656;SDS011;63185;45.642;13.764;2023-04-25T11:19:35;4.85;;;1.00;;
74656;SDS011;63185;45.642;13.764;2023-04-25T11:22:01;3.40;;;0.70;;
74656;SDS011;63185;45.642;13.764;2023-04-25T11:24:34;5.03;;;0.90;;
74656;SDS011;63185;45.642;13.764;2023-04-25T11:27:01;4.40;;;1.08;;
74656;SDS011;63185;45.642;13.764;2023-04-25T11:29:31;5.15;;;0.90;;
74656;SDS011;63185;45.642;13.764;2023-04-25T11:31:57;4.63;;;1.10;;
74656;SDS011;63185;45.642;13.764;2023-04-25T11:34:24;6.35;;;1.30;;
74656;SDS011;63185;45.642;13.764;2023-04-25T11:36:51;4.05;;;1.10;;
74656;SDS011;63185;45.642;13.764;2023-04-25T11:39:18;5.25;;;1.27;;
74656;SDS011;63185;45.642;13.764;2023-04-25T11:41:44;11.52;;;1.52;;
74656;SDS011;63185;45.642;13.764;2023-04-25T11:44:10;8.43;;;1.10;;
74656;SDS011;63185;45.642;13.764;2023-04-25T11:46:36;5.88;;;1.20;;
74656;SDS011;63185;45.642;13.764;2023-04-25T11:49:02;3.83;;;1.02;;
74656;SDS011;63185;45.642;13.764;2023-04-25T11:51:29;4.93;;;0.90;;
74656;SDS011;63185;45.642;13.764;2023-04-25T11:54:02;9.57;;;1.88;;
74656;SDS011;63185;45.642;13.764;2023-04-25T11:56:28;4.60;;;0.88;;
74656;SDS011;63185;45.642;13.764;2023-04-25T11:58:55;8.73;;;1.13;;
74656;SDS011;63185;45.642;13.764;2023-04-25T12:01:30;6.00;;;1.00;;
74656;SDS011;63185;45.642;13.764;2023-04-25T12:03:57;7.43;;;0.90;;
74656;SDS011;63185;45.642;13.764;2023-04-25T12:06:29;6.00;;;0.98;;
74656;SDS011;63185;45.642;13.764;2023-04-25T12:08:59;3.30;;;0.88;;
74656;SDS011;63185;45.642;13.764;2023-04-25T12:11:29;8.30;;;0.80;;
74656;SDS011;63185;45.642;13.764;2023-04-25T12:14:01;4.80;;;0.90;;
74656;SDS011;63185;45.642;13.764;2023-04-25T12:16:55;3.83;;;0.95;;
74656;SDS011;63185;45.642;13.764;2023-04-25T12:21:48;6.57;;;1.15;;
74656;SDS011;63185;45.642;13.764;2023-04-25T12:24:21;5.82;;;1.50;;
74656;SDS011;63185;45.642;13.764;2023-04-25T12:27:00;5.60;;;1.10;;
74656;SDS011;63185;45.642;13.764;2023-04-25T12:29:31;5.70;;;1.42;;
74656;SDS011;63185;45.642;13.764;2023-04-25T12:31:58;6.93;;;1.05;;
74656;SDS011;63185;45.642;13.764;2023-04-25T12:34:24;3.78;;;0.90;;
74656;SDS011;63185;45.642;13.764;2023-04-25T12:36:51;9.57;;;1.42;;
74656;SDS011;63185;45.642;13.764;2023-04-25T12:39:26;6.97;;;1.10;;
74656;SDS011;63185;45.642;13.764;2023-04-25T12:41:51;7.28;;;1.00;;
74656;SDS011;63185;45.642;13.764;2023-04-25T12:44:18;3.78;;;1.42;;
74656;SDS011;63185;45.642;13.764;2023-04-25T12:46:45;5.95;;;1.25;;
74656;SDS011;63185;45.642;13.764;2023-04-25T12:49:11;4.88;;;1.17;;
74656;SDS011;63185;45.642;13.764;2023-04-25T12:51:37;4.45;;;1.30;;
74656;SDS011;63185;45.642;13.764;2023-04-25T12:54:04;6.55;;;1.60;;
74656;SDS011;63185;45.642;13.764;2023-04-25T12:56:32;5.55;;;1.58;;
74656;SDS011;63185;45.642;13.764;2023-04-25T12:58:58;7.28;;;1.60;;
74656;SDS011;63185;45.642;13.764;2023-04-25T13:01:24;8.07;;;1.80;;
74656;SDS011;63185;45.642;13.764;2023-04-25T13:03:51;3.40;;;1.58;;
74656;SDS011;63185;45.642;13.764;2023-04-25T13:06:19;3.88;;;1.38;;
74656;SDS011;63185;45.642;13.764;2023-04-25T13:08:47;5.63;;;1.58;;
74656;SDS011;63185;45.642;13.764;2023-04-25T13:11:13;5.18;;;1.65;;
74656;SDS011;63185;45.642;13.764;2023-04-25T13:13:42;4.53;;;1.73;;
74656;SDS011;63185;45.642;13.764;2023-04-25T13:16:09;4.55;;;1.42;;
74656;SDS011;63185;45.642;13.764;2023-04-25T13:18:35;5.22;;;1.50;;
74656;SDS011;63185;45.642;13.764;2023-04-25T13:21:01;6.18;;;1.70;;
74656;SDS011;63185;45.642;13.764;2023-04-25T13:23:27;5.05;;;1.45;;
74656;SDS011;63185;45.642;13.764;2023-04-25T13:25:54;10.63;;;1.55;;
74656;SDS011;63185;45.642;13.764;2023-04-25T13:28:22;3.72;;;1.92;;
74656;SDS011;63185;45.642;13.764;2023-04-25T13:30:52;8.15;;;2.80;;
74656;SDS011;63185;45.642;13.764;2023-04-25T13:33:18;3.25;;;1.30;;
74656;SDS011;63185;45.642;13.764;2023-04-25T13:35:45;9.73;;;1.95;;
74656;SDS011;63185;45.642;13.764;2023-04-25T13:38:19;5.75;;;1.48;;
74656;SDS011;63185;45.642;13.764;2023-04-25T13:43:14;4.35;;;1.40;;
74656;SDS011;63185;45.642;13.764;2023-04-25T13:45:40;4.35;;;1.63;;
74656;SDS011;63185;45.642;13.764;2023-04-25T13:48:06;4.10;;;1.60;;
74656;SDS011;63185;45.642;13.764;2023-04-25T13:50:32;3.45;;;1.33;;
74656;SDS011;63185;45.642;13.764;2023-04-25T13:52:57;5.22;;;1.67;;
74656;SDS011;63185;45.642;13.764;2023-04-25T13:55:23;4.57;;;1.77;;
74656;SDS011;63185;45.642;13.764;2023-04-25T13:57:49;3.83;;;1.42;;
74656;SDS011;63185;45.642;13.764;2023-04-25T14:00:15;5.32;;;1.48;;
74656;SDS011;63185;45.642;13.764;2023-04-25T14:02:41;2.42;;;1.02;;
74656;SDS011;63185;45.642;13.764;2023-04-25T14:05:06;2.03;;;0.85;;
74656;SDS011;63185;45.642;13.764;2023-04-25T14:07:33;4.05;;;0.90;;
74656;SDS011;63185;45.642;13.764;2023-04-25T14:10:00;2.92;;;0.80;;
74656;SDS011;63185;45.642;13.764;2023-04-25T14:12:26;2.13;;;0.68;;
74656;SDS011;63185;45.642;13.764;2023-04-25T14:14:51;2.03;;;0.60;;
74656;SDS011;63185;45.642;13.764;2023-04-25T14:17:20;4.20;;;0.80;;
74656;SDS011;63185;45.642;13.764;2023-04-25T14:19:46;5.18;;;0.80;;
74656;SDS011;63185;45.642;13.764;2023-04-25T14:22:13;2.30;;;0.70;;
74656;SDS011;63185;45.642;13.764;2023-04-25T14:24:40;2.42;;;0.80;;
74656;SDS011;63185;45.642;13.764;2023-04-25T14:27:06;5.28;;;1.23;;
74656;SDS011;63185;45.642;13.764;2023-04-25T14:29:31;4.82;;;1.42;;
74656;SDS011;63185;45.642;13.764;2023-04-25T14:31:57;3.10;;;1.10;;
74656;SDS011;63185;45.642;13.764;2023-04-25T14:34:24;3.65;;;0.90;;
74656;SDS011;63185;45.642;13.764;2023-04-25T14:36:50;2.45;;;1.15;;
74656;SDS011;63185;45.642;13.764;2023-04-25T14:39:17;2.97;;;1.20;;
74656;SDS011;63185;45.642;13.764;2023-04-25T14:41:43;3.55;;;1.00;;
74656;SDS011;63185;45.642;13.764;2023-04-25T14:44:09;1.45;;;0.90;;
74656;SDS011;63185;45.642;13.764;2023-04-25T14:46:35;2.10;;;1.00;;
74656;SDS011;63185;45.642;13.764;2023-04-25T14:49:01;1.80;;;0.77;;
74656;SDS011;63185;45.642;13.764;2023-04-25T14:51:28;1.70;;;1.00;;
74656;SDS011;63185;45.642;13.764;2023-04-25T14:53:54;3.88;;;1.25;;